Time;durP1;ratioP1;P1;durP2;ratioP2;P2;SDS_P1;SDS_P2;PMS_P1;PMS_P2;Temp;Humidity;BMP_temperature;BMP_pressure;BME280_temperature;BME280_humidity;BME280_pressure;Samples;Min_cycle;Max_cycle;Signal;HPM_P1;HPM_P2
2021/08/01 00:01:37;;;;;;;6.80;1.90;;;18.70;99.90;;;19.27;66.24;100328.09;5095974;28;20655;-75
2021/08/01 00:04:05;;;;;;;5.15;2.10;;;18.70;99.90;;;19.26;66.92;100327.25;5095511;28;20674;-74
2021/08/01 00:06:31;;;;;;;4.72;1.90;;;18.70;99.90;;;19.23;66.61;100322.19;5094499;28;20225;-73
2021/08/01 00:08:58;;;;;;;7.00;2.22;;;18.70;99.90;;;19.22;66.77;100332.94;5075132;28;20256;-74
2021/08/01 00:11:25;;;;;;;6.65;2.00;;;18.60;99.90;;;19.21;66.56;100326.78;5096975;28;20750;-74
2021/08/01 00:13:52;;;;;;;5.35;2.00;;;18.60;99.90;;;19.22;67.13;100341.75;5096372;28;20565;-74
2021/08/01 00:16:19;;;;;;;4.75;1.80;;;18.60;99.90;;;19.22;66.75;100344.41;5097042;28;20201;-73
2021/08/01 00:18:47;;;;;;;5.30;2.03;;;18.60;99.90;;;19.19;66.60;100331.34;5082841;28;20566;-75
2021/08/01 00:21:14;;;;;;;6.40;2.00;;;18.60;99.90;;;19.20;66.99;100338.34;5100739;28;20570;-75
2021/08/01 00:23:41;;;;;;;5.97;2.00;;;18.60;99.90;;;19.14;66.84;100327.38;5082999;28;20561;-74
2021/08/01 00:26:08;;;;;;;7.43;2.08;;;18.60;99.90;;;19.10;66.98;100321.47;5083748;28;20223;-73
2021/08/01 00:28:34;;;;;;;4.88;1.90;;;18.60;99.90;;;19.12;67.42;100327.50;5100831;28;20226;-75
2021/08/01 00:31:01;;;;;;;5.43;1.90;;;18.50;99.90;;;19.11;67.36;100323.16;5099262;28;20271;-74
2021/08/01 00:33:28;;;;;;;7.90;1.80;;;18.50;99.90;;;19.09;67.42;100318.94;5082398;28;20221;-74
2021/08/01 00:35:58;;;;;;;3.95;1.70;;;18.50;99.90;;;19.05;67.59;100321.00;5080558;28;20248;-74
2021/08/01 00:38:25;;;;;;;5.07;1.88;;;18.50;99.90;;;19.05;67.68;100322.78;5077268;28;20691;-74
2021/08/01 00:40:52;;;;;;;4.70;1.90;;;18.50;99.90;;;19.05;67.81;100323.66;5099983;28;20278;-75
2021/08/01 00:43:18;;;;;;;5.82;2.10;;;18.40;99.90;;;19.04;67.61;100329.91;5100084;28;20270;-74
2021/08/01 00:45:46;;;;;;;5.45;2.00;;;18.50;99.90;;;18.99;68.01;100337.38;5083628;28;20253;-73
2021/08/01 00:48:14;;;;;;;5.30;1.90;;;18.40;99.90;;;18.97;68.19;100339.34;5101539;28;20290;-74
2021/08/01 00:50:43;;;;;;;6.38;1.98;;;18.40;99.90;;;18.95;68.43;100328.00;5099974;28;20217;-74
2021/08/01 00:53:13;;;;;;;7.57;1.77;;;18.40;99.90;;;18.95;68.48;100327.13;5100126;28;20274;-75
2021/08/01 00:55:42;;;;;;;7.38;2.03;;;18.40;99.90;;;18.92;68.58;100330.03;5103968;28;20191;-73
2021/08/01 00:58:09;;;;;;;5.95;2.00;;;18.40;99.90;;;18.91;68.62;100334.50;5102812;28;20180;-74
2021/08/01 01:01:05;;;;;;;6.35;2.40;;;18.30;99.90;;;18.90;68.72;100340.78;5100325;28;20202;-73
2021/08/01 01:03:46;;;;;;;4.88;1.92;;;18.30;99.90;;;18.89;68.76;100333.75;5100200;28;20175;-74
2021/08/01 01:06:26;;;;;;;6.05;1.92;;;18.30;99.90;;;18.90;68.61;100324.84;5100195;28;20186;-73
2021/08/01 01:09:04;;;;;;;5.35;1.85;;;18.30;99.90;;;18.88;68.86;100320.63;5099525;28;20199;-74
2021/08/01 01:12:05;;;;;;;5.75;2.10;;;18.30;99.90;;;18.86;69.15;100319.88;5079603;28;20196;-74
2021/08/01 01:14:41;;;;;;;5.90;2.15;;;18.30;99.90;;;18.84;68.97;100320.00;5081795;28;20195;-73
2021/08/01 01:17:14;;;;;;;5.63;2.17;;;18.30;99.90;;;18.82;68.87;100327.28;5098143;28;20245;-74
2021/08/01 01:20:04;;;;;;;6.35;1.92;;;18.20;99.90;;;18.81;69.30;100322.91;5099510;28;20212;-73
2021/08/01 01:22:41;;;;;;;6.93;2.40;;;18.20;99.90;;;18.79;69.19;100321.34;5081413;28;20198;-74
2021/08/01 01:25:50;;;;;;;5.75;2.20;;;18.20;99.90;;;18.75;69.42;100331.34;5099983;28;20175;-74
2021/08/01 01:28:25;;;;;;;6.30;2.10;;;18.20;99.90;;;18.74;69.27;100329.66;5096139;28;20229;-74
2021/08/01 01:31:08;;;;;;;6.68;2.08;;;18.20;99.90;;;18.74;69.20;100332.28;5079710;28;20663;-73
2021/08/01 01:33:38;;;;;;;8.13;2.20;;;18.20;99.90;;;18.73;69.59;100339.44;5098616;28;20203;-73
2021/08/01 01:36:08;;;;;;;4.85;1.85;;;18.10;99.90;;;18.71;69.45;100333.38;5081007;28;20676;-73
2021/08/01 01:38:37;;;;;;;7.05;2.25;;;18.10;99.90;;;18.70;69.64;100328.22;5079645;28;20206;-74
2021/08/01 01:41:18;;;;;;;5.72;2.10;;;18.10;99.90;;;18.68;69.92;100335.44;5096214;28;20202;-74
2021/08/01 01:44:02;;;;;;;5.72;2.08;;;18.10;99.90;;;18.68;69.78;100340.75;5080459;28;20361;-74
2021/08/01 01:46:29;;;;;;;6.22;2.28;;;18.10;99.90;;;18.66;70.02;100324.09;5078472;28;20211;-73
2021/08/01 01:48:58;;;;;;;6.07;2.00;;;18.00;99.90;;;18.65;70.09;100319.78;5095220;28;20208;-74
2021/08/01 01:51:26;;;;;;;7.60;2.20;;;18.10;99.90;;;18.62;70.22;100326.13;5076821;28;20187;-73
2021/08/01 01:53:56;;;;;;;6.78;2.03;;;18.00;99.90;;;18.60;70.05;100327.22;5094387;28;20603;-74
2021/08/01 01:56:25;;;;;;;7.78;2.40;;;18.00;99.90;;;18.59;70.37;100336.13;5079335;28;20205;-73
2021/08/01 01:58:53;;;;;;;8.07;2.40;;;18.00;99.90;;;18.59;70.32;100338.78;5099651;28;20212;-74
2021/08/01 02:01:20;;;;;;;4.82;1.90;;;18.00;99.90;;;18.60;70.30;100335.19;5099921;28;20214;-72
2021/08/01 02:03:50;;;;;;;8.35;2.20;;;18.00;99.90;;;18.59;70.07;100330.81;5082432;28;20245;-74
2021/08/01 02:06:40;;;;;;;8.07;2.20;;;18.00;99.90;;;18.59;70.44;100336.13;5060969;28;20215;-73
2021/08/01 02:09:29;;;;;;;5.82;2.13;;;18.00;99.90;;;18.58;70.19;100329.16;5081131;28;20223;-75
2021/08/01 02:12:13;;;;;;;7.13;2.28;;;17.90;99.90;;;18.56;70.49;100318.66;5080771;28;20194;-75
2021/08/01 02:14:58;;;;;;;6.22;2.42;;;18.00;99.90;;;18.55;70.44;100313.47;5100235;28;20542;-74
2021/08/01 02:17:32;;;;;;;6.18;2.42;;;17.90;99.90;;;18.50;70.88;100313.00;5100430;28;20191;-73
2021/08/01 02:20:05;;;;;;;7.97;2.55;;;17.90;99.90;;;18.45;71.19;100317.81;5065977;28;20214;-73
2021/08/01 02:22:33;;;;;;;5.40;2.30;;;17.90;99.90;;;18.42;71.02;100318.03;5111387;28;20195;-72
2021/08/01 02:25:04;;;;;;;6.63;2.40;;;17.80;99.90;;;18.41;71.25;100319.84;5101010;28;20176;-73
2021/08/01 02:27:35;;;;;;;5.32;2.05;;;17.90;99.90;;;18.39;71.47;100323.53;5099510;28;20270;-74
2021/08/01 02:30:05;;;;;;;4.63;2.00;;;17.80;99.90;;;18.39;71.32;100324.41;5081945;28;20215;-73
2021/08/01 02:32:36;;;;;;;8.02;2.30;;;17.80;99.90;;;18.40;71.29;100319.97;5083080;28;20206;-74
2021/08/01 02:35:05;;;;;;;6.78;2.58;;;17.80;99.90;;;18.37;71.65;100325.47;5081818;28;20226;-73
2021/08/01 02:37:34;;;;;;;6.78;2.42;;;17.80;99.90;;;18.37;71.76;100328.13;5082182;28;20290;-73
2021/08/01 02:40:03;;;;;;;6.50;2.50;;;17.80;99.90;;;18.36;71.89;100323.75;5080841;28;20593;-74
2021/08/01 02:42:35;;;;;;;6.38;2.35;;;17.80;99.90;;;18.35;71.85;100327.38;5097013;28;20203;-71
2021/08/01 02:45:03;;;;;;;7.78;2.33;;;17.80;99.90;;;18.34;72.12;100328.31;5079244;28;20586;-74
2021/08/01 02:47:33;;;;;;;7.57;2.80;;;17.80;99.90;;;18.34;72.10;100333.63;5109880;28;20199;-74
2021/08/01 02:50:04;;;;;;;7.18;2.65;;;17.70;99.90;;;18.32;72.39;100330.28;5117172;28;20205;-73
2021/08/01 02:52:41;;;;;;;7.90;2.55;;;17.80;99.90;;;18.31;72.46;100325.91;5116090;28;20183;-73
2021/08/01 02:55:16;;;;;;;6.65;2.80;;;17.80;99.90;;;18.32;72.38;100332.91;5115904;28;20268;-74
2021/08/01 02:57:50;;;;;;;7.10;2.90;;;17.80;99.90;;;18.29;72.64;100325.19;5096207;28;20371;-74
2021/08/01 03:00:19;;;;;;;7.28;2.63;;;17.70;99.90;;;18.29;72.90;100333.13;5075251;28;20211;-74
2021/08/01 03:02:49;;;;;;;8.25;2.60;;;17.70;99.90;;;18.27;72.84;100335.06;5092620;28;20552;-74
2021/08/01 03:05:21;;;;;;;7.22;2.30;;;17.70;99.90;;;18.27;72.96;100345.66;5074708;28;20187;-74
2021/08/01 03:07:50;;;;;;;7.97;2.47;;;17.60;99.90;;;18.23;73.26;100344.19;5092872;28;20227;-75
2021/08/01 03:10:20;;;;;;;6.60;2.60;;;17.60;99.90;;;18.22;73.39;100348.66;5074863;28;20207;-74
2021/08/01 03:12:49;;;;;;;7.20;2.53;;;17.60;99.90;;;18.22;73.46;100348.66;5074346;28;20187;-74
2021/08/01 03:15:19;;;;;;;9.43;2.80;;;17.60;99.90;;;18.17;73.68;100345.50;5091896;28;20245;-74
2021/08/01 03:17:46;;;;;;;7.53;2.80;;;17.60;99.90;;;18.18;73.64;100346.34;5091655;28;20194;-74
2021/08/01 03:20:16;;;;;;;8.43;2.65;;;17.60;99.90;;;18.14;73.76;100343.09;5092922;28;20586;-74
2021/08/01 03:23:01;;;;;;;9.60;2.85;;;17.60;99.90;;;18.13;74.06;100348.50;5093285;28;20202;-73
2021/08/01 03:25:45;;;;;;;6.50;2.50;;;17.50;99.90;;;18.12;74.03;100357.41;5074384;28;20282;-74
2021/08/01 03:28:12;;;;;;;8.85;3.00;;;17.60;99.90;;;18.10;73.95;100348.72;5090950;28;20241;-75
2021/08/01 03:30:39;;;;;;;7.65;2.58;;;17.60;99.90;;;18.09;74.15;100342.59;5093024;28;20184;-73
2021/08/01 03:33:06;;;;;;;7.30;2.65;;;17.50;99.90;;;18.09;74.13;100336.44;5074416;28;20187;-74
2021/08/01 03:35:33;;;;;;;6.60;2.38;;;17.60;99.90;;;18.09;74.31;100336.44;5074649;28;20219;-73
2021/08/01 03:38:18;;;;;;;8.55;2.90;;;17.60;99.90;;;18.08;74.22;100340.03;5090683;28;20195;-72
2021/08/01 03:41:04;;;;;;;8.38;2.65;;;17.50;99.90;;;18.07;74.28;100343.66;5092602;28;20256;-74
2021/08/01 03:43:32;;;;;;;9.07;2.88;;;17.50;99.90;;;18.07;74.28;100343.66;5092319;28;20266;-73
2021/08/01 03:45:59;;;;;;;8.30;2.67;;;17.50;99.90;;;18.08;74.39;100342.69;5074517;28;20195;-73
2021/08/01 03:48:26;;;;;;;8.40;2.38;;;17.50;99.90;;;18.09;74.40;100344.38;5074005;28;20223;-74
2021/08/01 03:50:54;;;;;;;8.07;2.60;;;17.50;99.90;;;18.06;74.63;100342.81;5092425;28;20675;-74
2021/08/01 03:53:21;;;;;;;6.80;2.42;;;17.50;99.90;;;18.03;74.80;100339.53;5074345;28;20244;-74
2021/08/01 03:55:48;;;;;;;8.70;2.88;;;17.50;99.90;;;18.02;74.92;100333.38;5074505;28;20754;-74
2021/08/01 03:58:16;;;;;;;7.65;2.72;;;17.50;99.90;;;18.01;74.53;100342.31;5092261;28;20183;-73
2021/08/01 04:00:47;;;;;;;9.77;2.80;;;17.50;99.90;;;17.98;75.18;100339.03;5074712;28;20188;-74
2021/08/01 04:03:14;;;;;;;6.30;2.67;;;17.50;99.90;;;17.99;74.91;100351.31;5091570;28;20611;-74
2021/08/01 04:05:41;;;;;;;8.63;2.90;;;17.50;99.90;;;17.99;75.17;100351.31;5092075;28;20179;-73
2021/08/01 04:08:08;;;;;;;8.88;2.60;;;17.50;99.90;;;17.98;74.94;100354.94;5091798;28;20583;-75
2021/08/01 04:10:35;;;;;;;9.07;2.78;;;17.50;99.90;;;18.00;74.96;100347.72;5092136;28;20191;-75
2021/08/01 04:13:03;;;;;;;8.45;2.70;;;17.50;99.90;;;18.00;75.01;100347.72;5074029;28;20187;-74
2021/08/01 04:15:31;;;;;;;8.68;2.90;;;17.50;99.90;;;17.99;75.26;100351.31;5074302;28;20686;-74
2021/08/01 04:17:58;;;;;;;8.40;2.97;;;17.50;99.90;;;18.00;75.39;100351.19;5074105;28;20195;-74
2021/08/01 04:20:25;;;;;;;8.32;2.47;;;17.50;99.90;;;18.00;75.37;100350.38;5091065;28;20211;-74
2021/08/01 04:22:52;;;;;;;8.25;2.75;;;17.50;99.90;;;17.99;75.77;100351.31;5073984;28;20187;-74
2021/08/01 04:25:20;;;;;;;7.18;2.60;;;17.50;99.90;;;17.97;75.65;100347.94;5092138;28;20249;-73
2021/08/01 04:27:46;;;;;;;6.65;2.55;;;17.50;99.90;;;17.94;75.68;100350.81;5073182;28;20633;-73
2021/08/01 04:30:13;;;;;;;6.82;2.38;;;17.50;99.90;;;17.93;75.96;100342.03;5092169;28;20196;-73
2021/08/01 04:32:42;;;;;;;8.60;2.92;;;17.50;99.90;;;17.94;76.03;100349.00;5073761;28;20192;-74
2021/08/01 04:35:10;;;;;;;7.00;2.65;;;17.50;99.90;;;17.93;76.01;100346.47;5090760;28;20188;-74
2021/08/01 04:37:37;;;;;;;7.35;2.45;;;17.50;99.90;;;17.91;76.14;100337.78;5073800;28;20640;-75
2021/08/01 04:40:05;;;;;;;8.30;2.70;;;17.50;99.90;;;17.95;76.00;100344.56;5091968;28;20207;-73
2021/08/01 04:42:32;;;;;;;6.82;2.78;;;17.40;99.90;;;17.97;76.08;100345.28;5091911;28;20190;-74
2021/08/01 04:44:58;;;;;;;9.05;3.00;;;17.50;99.90;;;18.02;75.85;100332.56;5091844;28;20675;-75
2021/08/01 04:47:25;;;;;;;6.35;2.30;;;17.50;99.90;;;18.05;75.95;100332.34;5091750;28;20680;-74
2021/08/01 04:49:53;;;;;;;8.45;2.80;;;17.60;99.90;;;18.08;75.89;100332.97;5090571;28;20681;-73
2021/08/01 04:52:20;;;;;;;8.00;3.08;;;17.60;99.90;;;18.09;75.91;100331.97;5090939;28;20686;-74
2021/08/01 04:54:47;;;;;;;8.27;3.03;;;17.60;99.90;;;18.07;75.89;100335.72;5074000;28;20196;-74
2021/08/01 04:57:14;;;;;;;8.75;2.88;;;17.60;99.90;;;18.05;76.16;100340.28;5090649;28;20226;-74
2021/08/01 04:59:41;;;;;;;7.97;2.78;;;17.60;99.90;;;18.01;76.06;100338.81;5091781;28;20694;-74
2021/08/01 05:02:08;;;;;;;7.20;2.70;;;17.60;99.90;;;17.98;76.49;100345.19;5092193;28;20180;-74
2021/08/01 05:04:35;;;;;;;8.85;3.00;;;17.60;99.90;;;17.97;76.48;100342.63;5074292;28;20191;-74
2021/08/01 05:07:03;;;;;;;8.38;2.85;;;17.60;99.90;;;18.02;76.45;100346.63;5076550;28;20191;-73
2021/08/01 05:09:30;;;;;;;7.80;2.90;;;17.60;99.90;;;18.06;76.48;100341.97;5095366;28;20209;-73
2021/08/01 05:11:57;;;;;;;6.78;2.67;;;17.60;99.90;;;18.10;76.74;100335.50;5095397;28;20188;-74
2021/08/01 05:14:24;;;;;;;7.95;2.88;;;17.60;99.90;;;18.14;76.54;100339.56;5077317;28;20195;-78
2021/08/01 05:16:50;;;;;;;7.88;3.22;;;17.70;99.90;;;18.17;76.18;100339.38;5095135;28;20652;-74
2021/08/01 05:19:17;;;;;;;7.75;3.00;;;17.70;99.90;;;18.17;76.17;100342.03;5095466;28;20207;-74
2021/08/01 05:21:44;;;;;;;8.82;3.03;;;17.70;99.90;;;18.18;76.13;100351.66;5095284;28;20727;-75
2021/08/01 05:24:12;;;;;;;8.43;2.88;;;17.70;99.90;;;18.19;76.21;100351.53;5094145;28;20199;-74
2021/08/01 05:26:39;;;;;;;7.50;2.88;;;17.70;99.90;;;18.21;76.03;100360.22;5094908;28;20683;-75
2021/08/01 05:29:08;;;;;;;6.93;2.63;;;17.80;99.90;;;18.21;76.30;100352.28;5108393;28;20203;-74
2021/08/01 05:31:35;;;;;;;8.48;3.08;;;17.80;99.90;;;18.23;75.85;100354.78;5100650;28;20182;-72
2021/08/01 05:34:01;;;;;;;9.77;3.22;;;17.80;99.90;;;18.26;75.95;100360.72;5096660;28;20205;-74
2021/08/01 05:36:30;;;;;;;7.65;2.90;;;17.80;99.90;;;18.29;75.71;100354.31;5076712;28;20683;-74
2021/08/01 05:38:56;;;;;;;10.95;3.45;;;17.90;99.90;;;18.31;75.86;100357.72;5076624;28;20231;-74
2021/08/01 05:41:25;;;;;;;7.00;2.90;;;17.90;99.90;;;18.32;75.98;100359.41;5094524;28;20551;-74
2021/08/01 05:43:52;;;;;;;9.15;2.88;;;17.90;99.90;;;18.31;76.05;100353.25;5095152;28;20180;-74
2021/08/01 05:46:19;;;;;;;7.35;2.80;;;17.90;99.90;;;18.34;75.92;100365.41;5076611;28;20203;-72
2021/08/01 05:48:46;;;;;;;8.63;2.80;;;17.90;99.90;;;18.33;76.12;100366.41;5092868;28;20602;-74
2021/08/01 05:51:13;;;;;;;7.72;2.88;;;17.90;99.90;;;18.29;76.12;100356.97;5094968;28;20179;-75
2021/08/01 05:53:39;;;;;;;7.72;3.03;;;17.90;99.90;;;18.26;76.19;100355.41;5094411;28;20195;-74
2021/08/01 05:56:12;;;;;;;7.47;3.10;;;17.90;99.90;;;18.26;76.37;100346.63;5076566;28;20199;-73
2021/08/01 05:58:42;;;;;;;9.05;3.22;;;17.90;99.90;;;18.28;76.19;100355.31;5075961;28;20703;-74
2021/08/01 06:01:10;;;;;;;8.50;3.15;;;17.90;99.90;;;18.26;76.42;100351.91;5076057;28;20191;-74
2021/08/01 06:03:38;;;;;;;9.10;3.00;;;17.90;99.90;;;18.25;76.39;100347.59;5093466;28;20260;-74
2021/08/01 06:06:11;;;;;;;10.32;3.20;;;17.90;99.90;;;18.26;76.31;100341.31;5095464;28;20195;-73
2021/08/01 06:08:37;;;;;;;7.35;2.58;;;17.90;99.90;;;18.29;76.26;100327.81;5081311;28;20224;-73
2021/08/01 06:11:05;;;;;;;8.50;2.88;;;17.90;99.90;;;18.36;76.01;100329.06;5109989;28;20195;-73
2021/08/01 06:13:31;;;;;;;9.80;3.00;;;18.00;99.90;;;18.43;76.09;100322.38;5114003;28;20190;-74
2021/08/01 06:16:00;;;;;;;8.50;2.90;;;18.00;99.90;;;18.49;75.84;100335.13;5092948;28;20227;-74
2021/08/01 06:18:26;;;;;;;8.00;3.10;;;18.10;99.90;;;18.51;75.51;100330.56;5115136;28;20206;-74
2021/08/01 06:21:04;;;;;;;8.38;3.20;;;18.20;99.90;;;18.53;75.43;100337.47;5114631;28;20247;-75
2021/08/01 06:23:31;;;;;;;8.02;2.75;;;18.20;99.90;;;18.52;75.33;100342.88;5110827;28;20266;-74
2021/08/01 06:25:57;;;;;;;8.93;2.70;;;18.20;99.90;;;18.51;75.18;100344.69;5113212;28;20190;-75
2021/08/01 06:28:24;;;;;;;6.85;2.30;;;18.20;99.90;;;18.51;75.16;100346.47;5096943;28;20676;-73
2021/08/01 06:30:51;;;;;;;8.35;2.83;;;18.20;99.90;;;18.51;75.09;100349.97;5115304;28;20202;-73
2021/08/01 06:33:19;;;;;;;7.07;2.85;;;18.20;99.90;;;18.56;74.80;100341.66;5117789;28;20231;-74
2021/08/01 06:35:46;;;;;;;7.35;2.67;;;18.30;99.90;;;18.60;74.82;100348.44;5099719;28;20183;-74
2021/08/01 06:38:13;;;;;;;8.23;2.55;;;18.30;99.90;;;18.63;74.55;100340.25;5098881;28;20192;-74
2021/08/01 06:40:40;;;;;;;6.60;2.70;;;18.30;99.90;;;18.68;74.32;100346.03;5098719;28;20195;-74
2021/08/01 06:43:07;;;;;;;6.75;2.25;;;18.40;99.90;;;18.69;74.08;100342.41;5115191;28;20389;-74
2021/08/01 06:45:34;;;;;;;6.75;2.47;;;18.40;99.90;;;18.74;74.08;100345.56;5106386;28;20194;-74
2021/08/01 06:48:00;;;;;;;7.20;2.72;;;18.40;99.90;;;18.82;73.87;100350.28;5100671;28;20210;-75
2021/08/01 06:50:29;;;;;;;6.80;2.30;;;18.50;99.90;;;18.85;73.24;100352.69;5098478;28;20192;-74
2021/08/01 06:52:55;;;;;;;6.05;2.40;;;18.60;99.90;;;18.84;73.21;100354.50;5103213;28;20206;-74
2021/08/01 06:55:22;;;;;;;8.20;2.70;;;18.60;99.90;;;18.89;73.21;100354.97;5098278;28;20193;-75
2021/08/01 06:57:49;;;;;;;8.35;2.75;;;18.60;99.90;;;18.90;73.10;100351.38;5095650;28;20198;-73
2021/08/01 07:00:20;;;;;;;7.28;2.58;;;18.60;99.90;;;18.91;72.91;100355.72;5078617;28;20221;-74
2021/08/01 07:02:52;;;;;;;7.10;2.38;;;18.70;99.90;;;18.97;73.17;100355.25;5095211;28;20206;-73
2021/08/01 07:05:20;;;;;;;8.15;2.30;;;18.70;99.90;;;19.00;72.70;100355.00;5075584;28;20198;-74
2021/08/01 07:07:48;;;;;;;8.00;2.22;;;18.70;99.90;;;19.04;72.54;100359.09;5093261;28;20204;-75
2021/08/01 07:10:15;;;;;;;6.40;2.38;;;18.80;99.90;;;19.06;72.29;100364.28;5076217;28;20238;-74
2021/08/01 07:12:42;;;;;;;7.50;2.38;;;18.80;99.90;;;19.05;72.63;100366.09;5076095;28;20647;-73
2021/08/01 07:15:12;;;;;;;8.30;2.65;;;18.80;99.90;;;19.08;72.74;100362.34;5093593;28;20206;-74
2021/08/01 07:17:39;;;;;;;6.20;2.20;;;18.80;99.90;;;19.05;72.53;100371.41;5091413;28;20562;-74
2021/08/01 07:20:09;;;;;;;7.40;2.63;;;18.80;99.90;;;19.05;72.69;100366.09;5091669;28;20206;-74
2021/08/01 07:22:37;;;;;;;7.63;2.20;;;18.80;99.90;;;19.09;72.64;100367.53;5093256;28;20197;-73
2021/08/01 07:25:08;;;;;;;8.85;2.60;;;18.80;99.90;;;19.11;72.42;100365.59;5074900;28;20199;-75
2021/08/01 07:27:35;;;;;;;8.60;2.75;;;18.90;99.90;;;19.09;72.21;100356.91;5073869;28;20297;-74
2021/08/01 07:30:03;;;;;;;7.50;2.42;;;18.80;99.90;;;19.04;72.63;100364.38;5074460;28;20218;-74
2021/08/01 07:32:32;;;;;;;8.38;2.65;;;18.80;99.90;;;19.04;72.71;100359.09;5091404;28;20639;-74
2021/08/01 07:34:58;;;;;;;7.78;2.40;;;18.80;99.90;;;19.06;73.03;100362.47;5074525;28;20191;-73
2021/08/01 07:37:28;;;;;;;8.15;2.85;;;18.80;99.90;;;19.12;72.84;100354.06;5074048;28;20191;-74
2021/08/01 07:39:55;;;;;;;8.93;2.85;;;18.90;99.90;;;19.24;72.45;100354.88;5092620;28;20214;-74
2021/08/01 07:42:23;;;;;;;8.10;2.50;;;19.00;99.90;;;19.30;72.50;100349.97;5074070;28;20194;-73
2021/08/01 07:44:52;;;;;;;6.72;2.58;;;19.10;99.90;;;19.33;72.42;100362.13;5092306;28;20191;-74
2021/08/01 07:47:21;;;;;;;8.45;2.50;;;19.10;99.90;;;19.38;72.44;100352.84;5075139;28;20222;-75
2021/08/01 07:49:50;;;;;;;7.07;2.58;;;19.20;99.90;;;19.38;72.08;100358.16;5092293;28;20301;-74
2021/08/01 07:52:18;;;;;;;8.55;3.05;;;19.20;99.90;;;19.41;72.13;100354.41;5091082;28;20187;-74
2021/08/01 07:54:45;;;;;;;6.80;2.20;;;19.30;99.90;;;19.42;72.15;100359.63;5074259;28;20188;-74
2021/08/01 07:57:25;;;;;;;7.28;2.53;;;19.30;99.90;;;19.48;72.10;100359.13;5094801;28;20187;-73
2021/08/01 07:59:52;;;;;;;8.63;2.67;;;19.30;99.90;;;19.53;72.08;100354.28;5092183;28;20199;-74
2021/08/01 08:02:19;;;;;;;10.80;2.67;;;19.40;99.90;;;19.57;72.09;100344.25;5074301;28;20674;-73
2021/08/01 08:04:47;;;;;;;7.00;2.67;;;19.40;99.90;;;19.55;71.87;100349.69;5091906;28;20193;-74
2021/08/01 08:07:13;;;;;;;9.85;3.50;;;19.40;99.90;;;19.51;71.76;100358.84;5091519;28;20179;-74
2021/08/01 08:09:40;;;;;;;8.95;2.70;;;19.30;99.90;;;19.50;71.67;100362.50;5091801;28;20226;-75
2021/08/01 08:12:08;;;;;;;6.13;2.47;;;19.30;99.90;;;19.49;71.75;100354.66;5091884;28;20281;-74
2021/08/01 08:14:37;;;;;;;8.23;2.75;;;19.30;99.90;;;19.52;71.71;100357.06;5090711;28;20814;-74
2021/08/01 08:17:05;;;;;;;8.15;2.60;;;19.30;99.90;;;19.50;71.46;100357.19;5090264;28;20187;-73
2021/08/01 08:19:31;;;;;;;7.38;2.72;;;19.30;99.90;;;19.48;71.31;100359.13;5073642;28;20691;-74
2021/08/01 08:21:59;;;;;;;8.05;2.60;;;19.30;99.90;;;19.49;71.65;100360.78;5091814;28;20190;-74
2021/08/01 08:24:27;;;;;;;7.32;2.67;;;19.30;99.90;;;19.57;71.30;100352.22;5075005;28;20671;-75
2021/08/01 08:26:55;;;;;;;6.53;2.55;;;19.40;99.90;;;19.67;71.29;100362.00;5091579;28;20187;-73
2021/08/01 08:29:23;;;;;;;8.13;2.88;;;19.50;99.90;;;19.83;70.84;100353.59;5092095;28;20216;-74
2021/08/01 08:31:52;;;;;;;7.97;3.05;;;19.70;99.90;;;19.96;70.48;100348.97;5096082;28;20180;-73
2021/08/01 08:34:23;;;;;;;7.88;2.72;;;19.80;99.90;;;20.07;70.43;100345.44;5094833;28;20261;-73
2021/08/01 08:36:53;;;;;;;6.88;2.38;;;19.90;99.90;;;20.08;70.05;100341.81;5092765;28;20184;-74
2021/08/01 08:39:21;;;;;;;7.85;2.50;;;20.00;99.90;;;20.13;70.17;100350.25;5095915;28;20207;-75
2021/08/01 08:41:49;;;;;;;7.78;2.40;;;20.00;99.90;;;20.20;70.03;100352.28;5099464;28;20184;-75
2021/08/01 08:44:18;;;;;;;7.00;2.63;;;20.10;99.90;;;20.26;69.83;100350.94;5090477;28;20202;-75
2021/08/01 08:46:47;;;;;;;8.95;2.58;;;20.10;99.90;;;20.28;69.66;100349.00;5117085;28;20198;-73
2021/08/01 08:49:16;;;;;;;5.70;2.28;;;20.20;99.90;;;20.31;69.23;100351.41;5087352;28;20313;-74
2021/08/01 08:51:46;;;;;;;6.30;2.50;;;20.30;99.90;;;20.32;69.19;100356.59;5096703;28;20175;-74
2021/08/01 08:54:17;;;;;;;8.15;2.60;;;20.30;99.90;;;20.35;69.43;100356.34;5077891;28;20195;-73
2021/08/01 08:56:47;;;;;;;9.52;3.08;;;20.30;99.90;;;20.40;69.36;100348.81;5095385;28;20280;-73
2021/08/01 08:59:17;;;;;;;8.57;2.58;;;20.40;99.90;;;20.41;68.92;100360.31;5095174;28;20619;-74
2021/08/01 09:01:44;;;;;;;6.85;2.70;;;20.30;99.90;;;20.42;68.82;100356.66;5095316;28;20191;-74
2021/08/01 09:04:11;;;;;;;7.88;2.80;;;20.30;99.90;;;20.41;68.49;100357.63;5095021;28;20180;-74
2021/08/01 09:06:40;;;;;;;7.53;2.75;;;20.40;99.90;;;20.41;68.90;100362.97;5076567;28;20203;-73
2021/08/01 09:09:09;;;;;;;9.43;3.60;;;20.30;99.90;;;20.42;68.52;100369.94;5093527;28;20211;-73
2021/08/01 09:11:36;;;;;;;7.05;2.88;;;20.30;99.90;;;20.40;68.71;100356.78;5077010;28;20191;-74
2021/08/01 09:14:04;;;;;;;8.23;3.05;;;20.30;99.90;;;20.43;68.24;100358.38;5095049;28;20194;-72
2021/08/01 09:16:43;;;;;;;7.60;2.40;;;20.40;99.90;;;20.54;67.95;100363.59;5097153;28;20523;-73
2021/08/01 09:19:31;;;;;;;6.38;2.33;;;20.50;99.90;;;20.71;67.21;100358.56;5077542;28;20219;-74
2021/08/01 09:22:17;;;;;;;6.80;2.80;;;20.70;99.90;;;20.89;67.19;100356.13;5094593;28;20640;-75
2021/08/01 09:24:47;;;;;;;7.78;2.30;;;20.90;99.90;;;20.94;66.69;100359.25;5093642;28;20195;-75
2021/08/01 09:27:29;;;;;;;8.25;2.88;;;21.00;99.90;;;20.98;66.55;100350.06;5094387;28;20287;-74
2021/08/01 09:29:56;;;;;;;10.35;3.03;;;21.00;99.90;;;20.99;66.97;100357.06;5094378;28;20215;-74
2021/08/01 09:32:25;;;;;;;7.63;2.88;;;21.00;99.90;;;21.04;66.91;100355.69;5094820;28;20254;-73
2021/08/01 09:34:53;;;;;;;7.10;2.70;;;21.00;99.90;;;21.08;67.23;100350.94;5093719;28;20199;-74
2021/08/01 09:37:33;;;;;;;6.55;2.47;;;21.10;99.90;;;21.11;66.76;100351.53;5094196;28;20188;-74
2021/08/01 09:40:10;;;;;;;6.85;2.92;;;21.10;99.90;;;21.09;66.45;100342.81;5076483;28;20697;-74
2021/08/01 09:42:43;;;;;;;8.52;2.72;;;21.10;99.90;;;21.04;66.46;100338.88;5076329;28;20293;-74
2021/08/01 09:45:18;;;;;;;8.00;2.90;;;21.10;99.90;;;21.06;66.76;100337.78;5077496;28;20195;-75
2021/08/01 09:47:47;;;;;;;7.72;2.80;;;21.10;99.90;;;21.10;66.66;100343.66;5078228;28;20199;-74
2021/08/01 09:50:15;;;;;;;7.88;3.00;;;21.10;99.90;;;21.09;66.46;100336.66;5095073;28;20249;-75
2021/08/01 09:52:44;;;;;;;7.15;2.70;;;21.10;99.90;;;21.06;66.63;100345.75;5098512;28;20186;-74
2021/08/01 09:55:19;;;;;;;8.73;2.92;;;21.10;99.90;;;21.05;66.78;100341.41;5093599;28;20666;-73
2021/08/01 09:57:52;;;;;;;7.53;2.70;;;21.10;99.90;;;21.07;66.74;100349.25;5094511;28;20209;-74
2021/08/01 10:00:21;;;;;;;8.80;3.13;;;21.00;99.90;;;21.05;66.65;100338.72;5095070;28;20550;-73
2021/08/01 10:02:48;;;;;;;6.35;2.50;;;21.00;99.90;;;21.05;66.38;100343.19;5076915;28;20191;-73
2021/08/01 10:05:18;;;;;;;7.47;2.47;;;21.00;99.90;;;20.99;66.46;100344.59;5093838;28;20183;-74
2021/08/01 10:07:49;;;;;;;6.15;2.40;;;21.00;99.90;;;20.95;66.33;100344.94;5093642;28;20179;-74
2021/08/01 10:10:23;;;;;;;7.45;2.80;;;20.90;99.90;;;20.94;66.45;100340.59;5093839;28;20219;-74
2021/08/01 10:12:53;;;;;;;7.75;2.88;;;20.90;99.90;;;20.95;66.83;100350.25;5093415;28;20206;-75
2021/08/01 10:15:21;;;;;;;6.80;2.60;;;20.90;99.90;;;20.99;66.62;100349.06;5092337;28;20191;-73
2021/08/01 10:17:48;;;;;;;6.90;2.38;;;20.90;99.90;;;21.04;66.61;100350.38;5093341;28;20195;-74
2021/08/01 10:20:15;;;;;;;8.65;2.50;;;21.00;99.90;;;21.08;66.30;100345.63;5075733;28;20207;-74
2021/08/01 10:22:44;;;;;;;8.52;2.80;;;21.00;99.90;;;21.15;66.21;100338.75;5075459;28;20192;-74
2021/08/01 10:25:22;;;;;;;9.95;2.63;;;21.10;99.90;;;21.15;66.19;100336.94;5093556;28;20266;-75